createdAt,value
2022-08-09T00:02:14.184Z,2.38
2022-08-09T00:06:18.272Z,2.80
2022-08-09T00:09:58.449Z,2.45
2022-08-09T00:13:40.889Z,2.25
2022-08-09T00:18:06.044Z,2.60
2022-08-09T00:21:27.387Z,2.58
2022-08-09T00:25:12.831Z,2.53
2022-08-09T00:28:55.679Z,2.75
2022-08-09T00:32:40.016Z,2.42
2022-08-09T00:36:29.677Z,2.30
2022-08-09T00:40:17.356Z,2.47
2022-08-09T00:44:15.308Z,2.58
2022-08-09T00:48:05.603Z,2.13
2022-08-09T00:51:54.252Z,2.75
2022-08-09T00:56:05.741Z,2.03
2022-08-09T00:59:46.678Z,2.40
2022-08-09T01:03:48.221Z,2.53
2022-08-09T01:08:00.627Z,2.55
2022-08-09T01:11:56.183Z,2.45
2022-08-09T01:15:52.116Z,2.63
2022-08-09T01:19:57.102Z,2.90
2022-08-09T01:24:01.698Z,2.55
2022-08-09T01:27:52.548Z,2.30
2022-08-09T01:32:29.681Z,2.60
2022-08-09T01:35:46.163Z,2.67
2022-08-09T01:39:35.763Z,2.47
2022-08-09T01:43:19.258Z,2.70
2022-08-09T01:47:07.428Z,2.88
2022-08-09T01:50:55.549Z,2.78
2022-08-09T01:54:48.496Z,2.50
2022-08-09T01:58:32.380Z,2.63
2022-08-09T02:02:16.937Z,3.00
2022-08-09T02:06:06.335Z,2.63
2022-08-09T02:10:04.119Z,2.38
2022-08-09T02:14:07.405Z,2.95
2022-08-09T02:18:00.908Z,2.83
2022-08-09T02:21:57.850Z,2.50
2022-08-09T02:25:49.456Z,2.78
2022-08-09T02:29:43.101Z,2.55
2022-08-09T02:33:58.674Z,2.72
2022-08-09T02:37:33.095Z,3.37
2022-08-09T02:41:47.237Z,3.20
2022-08-09T02:45:35.486Z,2.75
2022-08-09T02:49:38.377Z,2.70
2022-08-09T02:53:27.173Z,2.78
2022-08-09T02:57:14.131Z,3.15
2022-08-09T03:04:52.176Z,3.20
2022-08-09T03:08:35.535Z,3.28
2022-08-09T03:12:18.827Z,2.83
2022-08-09T03:16:06.873Z,3.13
2022-08-09T03:19:58.092Z,4.03
2022-08-09T03:24:03.976Z,3.20
2022-08-09T03:27:52.852Z,3.67
2022-08-09T03:31:42.633Z,3.28
2022-08-09T03:36:13.892Z,3.28
2022-08-09T03:39:48.589Z,3.30
2022-08-09T03:43:37.836Z,3.40
2022-08-09T03:47:19.639Z,3.75
2022-08-09T03:51:05.152Z,3.75
2022-08-09T03:55:09.821Z,3.97
2022-08-09T03:58:52.003Z,3.80
2022-08-09T04:02:38.111Z,4.10
2022-08-09T04:06:27.020Z,3.45
2022-08-09T04:10:09.840Z,3.58
2022-08-09T04:14:59.111Z,4.03
2022-08-09T04:17:54.116Z,3.65
2022-08-09T04:21:41.900Z,4.18
2022-08-09T04:25:23.861Z,3.47
2022-08-09T04:29:13.356Z,3.80
2022-08-09T04:32:56.951Z,3.20
2022-08-09T04:36:40.405Z,4.07
2022-08-09T04:40:56.436Z,4.30
2022-08-09T04:44:39.216Z,4.15
2022-08-09T04:48:33.425Z,3.65
2022-08-09T04:52:18.391Z,4.70
2022-08-09T04:56:09.198Z,3.22
2022-08-09T04:59:54.246Z,3.53
2022-08-09T05:03:42.729Z,3.63
2022-08-09T05:07:29.386Z,4.00
2022-08-09T05:11:13.964Z,3.55
2022-08-09T05:14:57.616Z,3.38
2022-08-09T05:18:58.337Z,3.38
2022-08-09T05:23:55.003Z,3.78
2022-08-09T05:26:45.702Z,3.13
2022-08-09T05:30:31.243Z,3.67
2022-08-09T05:34:16.475Z,4.40
2022-08-09T05:37:59.311Z,3.85
2022-08-09T05:41:41.231Z,4.03
2022-08-09T05:45:24.836Z,3.75
2022-08-09T05:49:07.403Z,4.03
2022-08-09T05:53:21.444Z,4.18
2022-08-09T05:57:12.710Z,4.03
2022-08-09T06:00:55.940Z,4.30
2022-08-09T06:04:44.721Z,4.00
2022-08-09T06:08:28.057Z,4.78
2022-08-09T06:12:10.508Z,4.20
2022-08-09T06:15:53.432Z,4.55
2022-08-09T06:19:36.890Z,4.18
2022-08-09T06:23:18.854Z,3.90
2022-08-09T06:27:00.832Z,4.07
2022-08-09T06:30:43.365Z,4.03
2022-08-09T06:34:26.239Z,3.92
2022-08-09T06:38:11.802Z,4.43
2022-08-09T06:42:08.959Z,4.70
2022-08-09T06:46:06.833Z,4.78
2022-08-09T06:50:13.267Z,5.40
2022-08-09T06:53:55.811Z,5.85
2022-08-09T06:58:02.175Z,6.60
2022-08-09T07:01:54.229Z,5.47
2022-08-09T07:06:02.459Z,5.20
2022-08-09T07:09:59.590Z,4.88
2022-08-09T07:14:05.062Z,6.05
2022-08-09T07:17:56.121Z,6.45
2022-08-09T07:21:55.448Z,6.27
2022-08-09T07:25:43.384Z,6.97
2022-08-09T07:29:25.983Z,7.85
2022-08-09T07:33:16.387Z,6.25
2022-08-09T07:36:58.571Z,5.63
2022-08-09T07:41:08.181Z,6.10
2022-08-09T07:44:51.147Z,5.60
2022-08-09T07:48:36.554Z,4.90
2022-08-09T07:56:06.431Z,5.13
2022-08-09T08:00:03.097Z,4.75
2022-08-09T08:03:45.943Z,4.50
2022-08-09T08:08:43.723Z,4.95
2022-08-09T08:12:19.775Z,5.00
2022-08-09T08:15:35.565Z,4.28
2022-08-09T08:19:20.409Z,4.90
2022-08-09T08:23:15.872Z,5.18
2022-08-09T08:26:59.838Z,5.47
2022-08-09T08:30:42.850Z,4.18
2022-08-09T08:34:25.606Z,4.22
2022-08-09T08:38:11.602Z,4.85
2022-08-09T08:41:54.346Z,4.47
2022-08-09T08:45:53.605Z,3.55
2022-08-09T08:49:49.355Z,3.80
2022-08-09T08:53:37.031Z,3.20
2022-08-09T08:57:20.992Z,3.95
2022-08-09T09:01:09.083Z,3.60
2022-08-09T09:05:05.929Z,3.60
2022-08-09T09:08:59.414Z,3.15
2022-08-09T09:12:44.456Z,2.90
2022-08-09T09:16:34.130Z,2.72
2022-08-09T09:20:16.593Z,2.80
2022-08-09T09:24:10.339Z,2.40
2022-08-09T09:28:10.638Z,2.22
2022-08-09T09:32:06.475Z,2.20
2022-08-09T09:36:03.637Z,1.63
2022-08-09T09:39:57.154Z,1.55
2022-08-09T09:44:11.721Z,1.50
2022-08-09T09:47:56.199Z,1.33
2022-08-09T09:51:41.664Z,1.17
2022-08-09T09:55:31.387Z,1.40
2022-08-09T09:59:20.720Z,1.10
2022-08-09T10:03:11.407Z,0.70
2022-08-09T10:06:55.633Z,1.10
2022-08-09T10:10:39.441Z,0.57
2022-08-09T10:14:33.372Z,0.60
2022-08-09T10:18:15.952Z,0.77
2022-08-09T10:21:59.950Z,0.70
2022-08-09T10:26:07.712Z,0.65
2022-08-09T10:30:28.329Z,0.52
2022-08-09T10:34:10.954Z,0.50
2022-08-09T10:37:51.967Z,0.40
2022-08-09T10:41:35.204Z,0.60
2022-08-09T10:45:17.852Z,0.52
2022-08-09T10:49:10.535Z,0.30
2022-08-09T10:53:11.749Z,0.73
2022-08-09T10:57:09.445Z,0.30
2022-08-09T11:03:02.940Z,0.40
2022-08-09T11:05:25.162Z,0.50
2022-08-09T11:09:17.506Z,0.50
2022-08-09T11:13:49.243Z,0.30
2022-08-09T11:17:22.247Z,0.40
2022-08-09T11:21:05.615Z,0.20
2022-08-09T11:24:57.882Z,0.32
2022-08-09T11:28:56.073Z,0.50
2022-08-09T11:32:42.831Z,0.40
2022-08-09T11:36:35.318Z,0.40
2022-08-09T11:40:29.872Z,3.22
2022-08-09T11:44:13.480Z,0.57
2022-08-09T11:48:05.247Z,0.30
2022-08-09T11:53:55.123Z,3.35
2022-08-09T11:56:15.147Z,2.65
2022-08-09T12:00:13.062Z,0.47
2022-08-09T12:04:03.373Z,0.30
2022-08-09T12:07:47.264Z,1.50
2022-08-09T12:11:31.472Z,0.60
2022-08-09T12:15:50.323Z,5.50
2022-08-09T12:19:32.039Z,0.50
2022-08-09T12:23:14.161Z,0.40
2022-08-09T12:29:12.150Z,0.80
2022-08-09T12:32:02.566Z,0.63
2022-08-09T12:35:41.797Z,0.30
2022-08-09T12:39:24.877Z,0.52
2022-08-09T12:43:09.696Z,0.50
2022-08-09T12:46:51.653Z,0.40
2022-08-09T12:50:35.921Z,0.55
2022-08-09T12:54:19.064Z,0.30
2022-08-09T12:58:12.303Z,0.45
2022-08-09T13:02:09.898Z,0.60
2022-08-09T13:06:14.307Z,0.40
2022-08-09T13:10:04.246Z,0.50
2022-08-09T13:14:37.880Z,0.50
2022-08-09T13:18:04.985Z,0.50
2022-08-09T13:22:35.194Z,0.63
2022-08-09T13:25:53.349Z,0.43
2022-08-09T13:30:02.859Z,0.40
2022-08-09T13:33:53.479Z,0.60
2022-08-09T13:37:51.052Z,0.60
2022-08-09T13:41:59.139Z,0.45
2022-08-09T13:46:42.579Z,0.30
2022-08-09T13:49:56.286Z,0.40
2022-08-09T13:53:43.618Z,0.45
2022-08-09T13:57:35.755Z,0.45
2022-08-09T14:01:56.607Z,0.40
2022-08-09T14:05:58.820Z,0.50
2022-08-09T14:09:25.544Z,0.30
2022-08-09T14:13:12.085Z,0.60
2022-08-09T14:17:03.809Z,0.47
2022-08-09T14:20:46.801Z,0.73
2022-08-09T14:24:32.420Z,0.43
2022-08-09T14:28:15.452Z,0.50
2022-08-09T14:32:04.647Z,0.60
2022-08-09T14:35:53.586Z,0.60
2022-08-09T14:39:45.795Z,0.60
2022-08-09T14:43:47.514Z,0.68
2022-08-09T14:47:45.270Z,0.70
2022-08-09T14:51:31.365Z,0.50
2022-08-09T14:55:24.560Z,0.70
2022-08-09T14:59:08.631Z,0.90
2022-08-09T15:02:56.399Z,0.80
2022-08-09T15:06:40.264Z,0.80
2022-08-09T15:10:24.989Z,0.60
2022-08-09T15:14:13.271Z,0.88
2022-08-09T15:17:56.029Z,0.65
2022-08-09T15:22:01.230Z,0.70
2022-08-09T15:25:41.462Z,0.90
2022-08-09T15:30:58.819Z,0.73
2022-08-09T15:34:15.436Z,0.60
2022-08-09T15:37:57.322Z,0.63
2022-08-09T15:41:42.213Z,0.70
2022-08-09T15:45:29.877Z,0.63
2022-08-09T15:49:22.704Z,0.85
2022-08-09T15:53:06.664Z,0.60
2022-08-09T15:57:00.429Z,0.68
2022-08-09T16:00:42.507Z,0.60
2022-08-09T16:04:27.306Z,0.80
2022-08-09T16:08:24.762Z,0.57
2022-08-09T16:12:12.550Z,0.70
2022-08-09T16:20:04.771Z,0.60
2022-08-09T16:23:55.036Z,0.75
2022-08-09T16:27:38.565Z,0.98
2022-08-09T16:32:10.361Z,1.10
2022-08-09T16:35:39.191Z,0.80
2022-08-09T16:39:27.051Z,0.80
2022-08-09T16:43:22.252Z,0.90
2022-08-09T16:48:39.026Z,0.68
2022-08-09T16:51:08.029Z,1.17
2022-08-09T16:54:50.611Z,0.90
2022-08-09T16:58:35.649Z,1.05
2022-08-09T17:02:17.991Z,0.95
2022-08-09T17:06:32.088Z,0.80
2022-08-09T17:10:12.332Z,0.90
2022-08-09T17:17:50.294Z,1.08
2022-08-09T17:21:33.167Z,1.00
2022-08-09T17:25:15.370Z,0.80
2022-08-09T17:28:57.204Z,0.70
2022-08-09T17:32:39.689Z,0.60
2022-08-09T17:36:26.327Z,0.93
2022-08-09T17:40:16.931Z,0.80
2022-08-09T17:44:38.564Z,0.70
2022-08-09T17:48:02.831Z,0.90
2022-08-09T17:51:44.934Z,0.88
2022-08-09T17:55:47.209Z,1.42
2022-08-09T17:59:36.574Z,1.02
2022-08-09T18:03:20.352Z,1.08
2022-08-09T18:07:07.503Z,1.20
2022-08-09T18:11:00.648Z,0.70
2022-08-09T18:14:49.720Z,0.77
2022-08-09T18:18:33.029Z,1.02
2022-08-09T18:22:17.188Z,1.20
2022-08-09T18:26:00.053Z,1.08
2022-08-09T18:30:34.665Z,1.10
2022-08-09T18:33:53.078Z,1.33
2022-08-09T18:37:48.841Z,1.35
2022-08-09T18:41:36.977Z,1.10
2022-08-09T18:46:51.367Z,1.17
2022-08-09T18:49:26.263Z,1.17
2022-08-09T18:53:13.350Z,1.20
2022-08-09T18:56:55.604Z,0.90
2022-08-09T19:00:37.560Z,1.42
2022-08-09T19:04:24.837Z,1.38
2022-08-09T19:08:19.674Z,1.40
2022-08-09T19:12:01.836Z,0.90
2022-08-09T19:15:45.083Z,1.10
2022-08-09T19:19:41.433Z,1.10
2022-08-09T19:24:33.573Z,1.20
2022-08-09T19:27:28.357Z,1.08
2022-08-09T19:31:10.920Z,1.20
2022-08-09T19:34:54.023Z,1.10
2022-08-09T19:38:36.321Z,1.40
2022-08-09T19:42:31.384Z,1.00
2022-08-09T19:46:14.719Z,1.40
2022-08-09T19:50:08.042Z,1.55
2022-08-09T19:54:00.518Z,1.70
2022-08-09T19:57:42.529Z,1.67
2022-08-09T20:01:24.807Z,1.38
2022-08-09T20:05:26.954Z,1.45
2022-08-09T20:09:20.610Z,1.27
2022-08-09T20:13:16.469Z,1.48
2022-08-09T20:17:02.525Z,1.98
2022-08-09T20:20:44.565Z,1.90
2022-08-09T20:24:32.082Z,2.10
2022-08-09T20:28:24.422Z,1.77
2022-08-09T20:32:30.642Z,1.85
2022-08-09T20:36:14.776Z,2.25
2022-08-09T20:40:16.033Z,2.13
2022-08-09T20:44:00.141Z,1.80
2022-08-09T20:47:47.825Z,1.90
2022-08-09T20:51:30.686Z,2.20
2022-08-09T20:55:23.128Z,1.95
2022-08-09T20:59:09.865Z,1.58
2022-08-09T21:02:52.236Z,1.77
2022-08-09T21:06:35.038Z,1.60
2022-08-09T21:10:19.279Z,1.90
2022-08-09T21:14:01.163Z,1.70
2022-08-09T21:18:23.352Z,1.88
2022-08-09T21:21:53.033Z,2.05
2022-08-09T21:25:59.717Z,1.75
2022-08-09T21:29:48.700Z,2.13
2022-08-09T21:33:36.259Z,1.75
2022-08-09T21:37:19.736Z,2.08
2022-08-09T21:41:08.416Z,1.60
2022-08-09T21:44:50.897Z,2.08
2022-08-09T21:48:34.379Z,1.73
2022-08-09T21:52:20.607Z,1.92
2022-08-09T21:56:03.589Z,2.00
2022-08-09T21:59:45.597Z,1.52
2022-08-09T22:03:27.827Z,2.30
2022-08-09T22:07:09.748Z,2.00
2022-08-09T22:11:00.552Z,1.80
2022-08-09T22:14:58.095Z,1.60
2022-08-09T22:18:54.390Z,1.90
2022-08-09T22:22:37.085Z,1.35
2022-08-09T22:26:23.525Z,1.65
2022-08-09T22:30:31.466Z,1.85
2022-08-09T22:34:15.344Z,2.20
2022-08-09T22:38:06.934Z,1.95
2022-08-09T22:41:49.809Z,2.30
2022-08-09T22:48:13.939Z,2.33
2022-08-09T22:49:36.683Z,2.03
2022-08-09T22:53:23.423Z,2.17
2022-08-09T22:57:05.852Z,2.03
2022-08-09T23:00:51.689Z,2.05
2022-08-09T23:04:33.546Z,2.38
2022-08-09T23:08:39.003Z,2.53
2022-08-09T23:12:20.980Z,2.28
2022-08-09T23:16:03.761Z,2.25
2022-08-09T23:20:06.903Z,2.33
2022-08-09T23:24:06.014Z,2.13
2022-08-09T23:27:57.254Z,2.35
2022-08-09T23:31:54.289Z,2.65
2022-08-09T23:36:04.731Z,2.33
2022-08-09T23:39:41.352Z,2.38
2022-08-09T23:43:23.349Z,1.73
2022-08-09T23:47:05.260Z,2.28
2022-08-09T23:50:47.252Z,2.25
2022-08-09T23:54:29.057Z,2.53
2022-08-09T23:58:25.945Z,2.15
